Portada
METAR-TAF:

METAR-TAF

Aeroports :

Asunción, Paraguai

latitud: 25-16S, longitud: 057-38W, altitud: 101 m

Observació

L'informe es va fer fa 2 hores i 12 minuts, a les 23:00 UTC
Vent 6 kt del Sud
Temperatura 31°C
Humitat 55%
Pressió 1006 hPa
Visibilitat 10 km o més
Escasses núvols a una alçada de 3300 ft

METAR: SGAS 052300Z 17006KT 9999 FEW033 31/21 Q1006

Hora: 22:12 (01:12 UTC)

Pronòstic

L'informe es va fer fa 3 hores i 19 minuts, a les 21:53 UTC
Pronòstic vàlid del 06 a les 00 UTC al 07 a les 00 UTC
Vent 5 kt amb direcció variable
Visibilitat 10 km o més
sense núvols per sota de 1500 mi sense presència de cumulonimbus.
Evolucionant progressivament
l' 06 a les 15 UTC al 06 a les 19 UTC
Vent 6 kt del Est
Visibilitat 10 km o més
Cel ennuvolat a una alçada de 2700 ft

TAF: SGAS 052153Z 0600/0700 VRB05KT CAVOK TX37/0619Z TN24/0610Z BECMG 0615/0619 09006KT 9999 BKN027

Observacions i pronòstics meteorològics de més de 4000 aeroports (METAR i TAF).

Les estacions disponibles són els punts grocs i vermells al mapa.

Posi el ratolí al punt desitjat per veure el nom de l'estació.

Feu clic per veure les observacions i els pronòstics meteorològics.

Per canviar el mapa: feu clic els botons verds amb una creu de color negre per apropar; al botó verd amb un guió per allunyar la imatge; o en les fletxes verdes per a mapes adjacents.


METAR-TAF: